This is the latest recevied weather packets stored in our database for station/object N3TJJ-11. If no packets are shown the sender has not sent any weather packets the latest 10 day(s).
| Time | Temp. | Humidity | Pressure | Rain* | Wind** | Luminosity | Snow |
|---|---|---|---|---|---|---|---|
| 1777082406 | 12.78° C | 71% | 1007.8 hPa | 0 mm | - | - | - |
| 1777082048 | 13.33° C | 69% | 1007.8 hPa | 0 mm | - | - | - |
| 1777081686 | 13.33° C | 69% | 1007.2 hPa | 0 mm | - | - | - |
| 1777081452 | 13.89° C | 70% | 1007.3 hPa | 0 mm | - | - | - |
| 1777080966 | 13.89° C | 67% | 1007.9 hPa | 0 mm | - | - | - |
| 1777080853 | 13.89° C | 67% | 1007.9 hPa | 0 mm | - | - | - |
| 1777080246 | 14.44° C | 67% | 1007.6 hPa | 0 mm | - | - | - |
| 1777079649 | 16.11° C | 67% | 1007.4 hPa | 0 mm | - | - | - |
| 1777079526 | 16.11° C | 67% | 1007.4 hPa | 0 mm | - | - | - |
| 1777079050 | 17.22° C | 71% | 1007.1 hPa | 0 mm | - | - | - |
| 1777078806 | 17.22° C | 72% | 1007.2 hPa | 0 mm | - | - | - |
| 1777078448 | 17.22° C | 71% | 1007.2 hPa | 0 mm | - | - | - |
| 1777078087 | 17.22° C | 71% | 1007.2 hPa | 0 mm | - | - | - |
| 1777077848 | 17.22° C | 72% | 1007.1 hPa | 0 mm | - | - | - |
| 1777077366 | 17.22° C | 72% | 1006.9 hPa | 0 mm | - | - | - |
| 1777077249 | 17.22° C | 73% | 1006.7 hPa | 0 mm | - | - | - |
| 1777076647 | 17.22° C | 72% | 1006.6 hPa | 0.25 mm | - | - | - |
| 1777076047 | 17.22° C | 74% | 1006.2 hPa | 0.25 mm | - | - | - |
| 1777075926 | 17.22° C | 73% | 1006.2 hPa | 0.25 mm | - | - | - |
| 1777075449 | 17.22° C | 71% | 1006 hPa | 0.25 mm | - | - | - |
| 1777075206 | 17.22° C | 71% | 1005.9 hPa | 0.25 mm | - | - | - |
| 1777074849 | 17.78° C | 76% | 1005.5 hPa | 0.25 mm | - | - | - |
| 1777074487 | 17.78° C | 70% | 1005.5 hPa | 0.25 mm | - | - | - |
| 1777074248 | 18.33° C | 68% | 1006.1 hPa | 0.25 mm | - | - | - |
| 1777073766 | 18.89° C | 66% | 1006.3 hPa | 0.25 mm | - | - | - |
* Rain latest hour (hover to see other rain measurements)
** Current wind speed in m/s (hover to see current wind gust speed)